Date,TemperatureHighF,TemperatureAvgF,TemperatureLowF,DewpointHighF,DewpointAvgF,DewpointLowF,HumidityHigh,HumidityAvg,HumidityLow,PressureMaxIn,PressureMinIn,WindSpeedMaxMPH,WindSpeedAvgMPH,GustSpeedMaxMPH,PrecipitationSumIn
2014-1-4,35.5,32.1,27.2,25.4,20.1,14.0,68,61,55,30.00,29.94,19,12,26,0.00
2014-1-5,35.3,29.8,19.7,31.9,25.8,17.2,96,86,62,29.98,29.58,10,2,22,0.14
2014-1-6,20.3,-0.8,-13.5,18.1,-6.1,-20.6,91,78,69,30.20,29.74,0,0,6,0.00
2014-1-15,21.9,21.9,21.9,15.2,15.2,15.2,75,75,75,30.03,30.03,17,14,26,0.00
2014-1-16,29.7,26.5,22.7,25.4,22.4,14.7,93,84,70,29.70,29.62,31,18,31,0.00
2014-1-17,28.1,17.8,7.9,25.3,11.3,1.8,89,76,62,30.01,29.68,24,11,24,0.00
2014-1-18,20.5,15.9,7.4,18.0,11.3,2.5,90,82,70,30.00,29.76,21,8,21,0.00
2014-1-19,34.0,21.7,9.7,25.3,16.1,5.8,89,79,67,29.88,29.57,45,15,45,0.00
2014-1-20,36.8,32.5,25.0,27.7,26.0,20.6,88,77,65,29.89,29.54,33,9,33,0.00
2014-1-21,24.7,9.0,-3.3,20.6,-1.2,-12.8,87,64,45,30.24,29.86,33,13,33,0.00
2014-1-22,13.8,5.0,-6.3,9.9,-1.5,-12.2,84,74,59,30.23,29.97,26,8,26,0.00
2014-1-23,8.4,0.8,-3.7,2.9,-6.9,-12.5,78,69,63,30.59,30.05,29,15,29,0.00
2014-1-24,19.4,5.5,-7.2,15.1,-3.4,-13.9,86,67,54,30.59,29.68,41,18,41,0.00
2014-1-25,29.1,18.7,6.0,26.5,12.5,-3.9,92,77,55,29.87,29.41,47,20,47,0.00
2014-1-26,40.6,19.6,1.8,29.7,12.7,-6.0,85,74,58,29.86,29.39,43,14,43,0.00
2014-1-27,24.4,1.6,-9.6,19.7,-7.5,-19.3,85,65,55,30.46,29.59,50,19,50,0.00
2014-1-28,3.2,-6.3,-15.6,-8.6,-15.3,-23.3,74,65,54,30.51,30.33,18,7,18,0.00
2014-1-29,18.0,8.2,-5.2,5.4,-2.3,-11.5,75,62,50,30.33,30.17,22,11,23,0.00
2014-1-30,31.3,21.2,13.6,24.1,7.8,-0.3,89,56,47,30.18,29.77,35,16,35,0.00
2014-1-31,30.9,28.2,26.4,26.4,22.0,14.4,91,78,52,30.11,29.88,27,6,27,0.01